createdAt,value
2018-12-16T00:01:51.034Z,0.50
2018-12-16T00:04:24.487Z,0.50
2018-12-16T00:06:57.917Z,0.50
2018-12-16T00:09:31.376Z,0.50
2018-12-16T00:12:04.813Z,0.50
2018-12-16T00:14:38.271Z,0.50
2018-12-16T00:17:11.746Z,0.50
2018-12-16T00:19:45.218Z,0.50
2018-12-16T00:22:18.754Z,0.50
2018-12-16T00:24:52.443Z,0.60
2018-12-16T00:27:25.879Z,0.60
2018-12-16T00:29:59.333Z,0.60
2018-12-16T00:32:32.759Z,0.60
2018-12-16T00:35:06.474Z,0.50
2018-12-16T00:37:40.733Z,0.60
2018-12-16T00:40:14.277Z,0.60
2018-12-16T00:42:47.716Z,0.60
2018-12-16T00:45:40.401Z,0.60
2018-12-16T00:48:13.840Z,0.60
2018-12-16T00:50:48.106Z,0.60
2018-12-16T00:53:21.541Z,0.60
2018-12-16T00:58:52.503Z,0.60
2018-12-16T01:01:25.929Z,0.60
2018-12-16T01:03:59.379Z,0.60
2018-12-16T01:06:32.821Z,0.60
2018-12-16T01:09:07.347Z,0.60
2018-12-16T01:11:40.775Z,0.60
2018-12-16T01:14:14.248Z,0.60
2018-12-16T01:16:47.679Z,0.60
2018-12-16T01:19:21.191Z,0.60
2018-12-16T01:21:55.441Z,0.60
2018-12-16T01:24:28.895Z,0.60
2018-12-16T01:27:02.322Z,0.60
2018-12-16T01:29:36.016Z,0.60
2018-12-16T01:32:09.448Z,0.60
2018-12-16T01:34:52.831Z,0.60
2018-12-16T01:37:26.261Z,0.60
2018-12-16T01:39:59.710Z,0.60
2018-12-16T01:42:33.134Z,0.60
2018-12-16T01:45:06.737Z,0.60
2018-12-16T01:47:40.173Z,0.60
2018-12-16T01:50:13.621Z,0.60
2018-12-16T01:52:50.201Z,0.60
2018-12-16T01:55:22.525Z,0.60
2018-12-16T01:57:55.956Z,0.60
2018-12-16T02:00:29.698Z,0.60
2018-12-16T02:03:03.142Z,0.60
2018-12-16T02:05:37.180Z,0.60
2018-12-16T02:08:10.630Z,0.70
2018-12-16T02:10:44.089Z,0.70
2018-12-16T02:13:17.526Z,0.70
2018-12-16T02:18:49.617Z,0.70
2018-12-16T02:21:23.050Z,0.70
2018-12-16T02:23:56.498Z,0.70
2018-12-16T02:26:29.916Z,0.70
2018-12-16T02:29:03.381Z,0.70
2018-12-16T02:31:36.816Z,0.70
2018-12-16T02:34:10.280Z,0.70
2018-12-16T02:36:43.722Z,0.80
2018-12-16T02:39:17.184Z,0.70
2018-12-16T02:41:50.614Z,0.80
2018-12-16T02:44:24.074Z,0.80
2018-12-16T02:46:57.941Z,0.80
2018-12-16T02:49:31.396Z,0.70
2018-12-16T02:52:04.831Z,0.80
2018-12-16T02:54:38.279Z,0.80
2018-12-16T02:57:11.714Z,0.80
2018-12-16T02:59:45.178Z,0.80
2018-12-16T03:02:18.609Z,0.80
2018-12-16T03:04:52.070Z,0.80
2018-12-16T03:07:25.508Z,0.90
2018-12-16T03:09:58.960Z,0.90
2018-12-16T03:12:32.395Z,0.90
2018-12-16T03:15:06.036Z,0.90
2018-12-16T03:17:39.468Z,0.90
2018-12-16T03:20:13.004Z,0.90
2018-12-16T03:22:46.447Z,0.80
2018-12-16T03:25:25.361Z,0.80
2018-12-16T03:27:59.217Z,0.70
2018-12-16T03:30:32.712Z,0.50
2018-12-16T03:33:06.226Z,0.50
2018-12-16T03:35:39.802Z,0.40
2018-12-16T03:38:13.371Z,0.40
2018-12-16T03:40:46.835Z,0.30
2018-12-16T03:43:20.267Z,0.20
2018-12-16T03:49:14.231Z,0.20
2018-12-16T03:51:47.783Z,0.30
2018-12-16T03:54:21.237Z,0.20
2018-12-16T03:56:54.664Z,0.20
2018-12-16T03:59:28.119Z,0.20
2018-12-16T04:02:01.557Z,0.10
2018-12-16T04:04:35.022Z,0.10
2018-12-16T04:07:08.467Z,0.00
2018-12-16T04:09:41.924Z,0.00
2018-12-16T04:12:15.350Z,0.00
2018-12-16T04:14:48.809Z,0.00
2018-12-16T04:17:22.240Z,-0.10
2018-12-16T04:19:55.776Z,-0.10
2018-12-16T04:22:29.410Z,-0.20
2018-12-16T04:25:09.309Z,-0.30
2018-12-16T04:27:59.830Z,-0.30
2018-12-16T04:30:33.349Z,-0.20
2018-12-16T04:33:06.846Z,-0.20
2018-12-16T04:35:40.331Z,-0.20
2018-12-16T04:38:13.800Z,-0.30
2018-12-16T04:40:47.286Z,-0.30
2018-12-16T04:43:20.756Z,-0.20
2018-12-16T04:45:54.256Z,-0.20
2018-12-16T04:51:36.021Z,-0.20
2018-12-16T04:54:09.509Z,-0.20
2018-12-16T04:56:52.932Z,-0.30
2018-12-16T04:59:26.406Z,-0.30
2018-12-16T05:02:01.956Z,-0.40
2018-12-16T05:04:35.447Z,-0.40
2018-12-16T05:07:08.952Z,-0.40
2018-12-16T05:09:48.041Z,-0.40
2018-12-16T05:12:21.552Z,-0.30
2018-12-16T05:15:13.803Z,-0.30
2018-12-16T05:17:47.312Z,-0.40
2018-12-16T05:20:26.682Z,-0.40
2018-12-16T05:23:00.185Z,-0.30
2018-12-16T05:25:37.708Z,-0.30
2018-12-16T05:28:11.204Z,-0.40
2018-12-16T05:30:54.040Z,-0.30
2018-12-16T05:33:27.536Z,-0.40
2018-12-16T05:36:07.718Z,-0.40
2018-12-16T05:38:41.242Z,-0.40
2018-12-16T05:41:22.782Z,-0.40
2018-12-16T05:43:56.273Z,-0.40
2018-12-16T05:46:41.902Z,-0.40
2018-12-16T05:49:16.085Z,-0.40
2018-12-16T05:51:49.512Z,-0.40
2018-12-16T05:54:22.968Z,-0.40
2018-12-16T05:56:56.399Z,-0.40
2018-12-16T05:59:29.862Z,-0.40
2018-12-16T06:02:03.296Z,-0.40
2018-12-16T06:04:48.603Z,-0.40
2018-12-16T06:07:22.088Z,-0.40
2018-12-16T06:10:08.677Z,-0.40
2018-12-16T06:12:42.152Z,-0.30
2018-12-16T06:15:17.641Z,-0.30
2018-12-16T06:17:51.122Z,-0.30
2018-12-16T06:20:24.655Z,-0.30
2018-12-16T06:26:00.306Z,-0.20
2018-12-16T06:28:34.006Z,-0.20
2018-12-16T06:31:07.550Z,-0.20
2018-12-16T06:33:40.977Z,-0.20
2018-12-16T06:36:26.999Z,-0.20
2018-12-16T06:39:00.435Z,-0.20
2018-12-16T06:41:33.941Z,-0.20
2018-12-16T06:44:07.986Z,-0.20
2018-12-16T06:46:41.477Z,-0.20
2018-12-16T06:49:15.192Z,-0.50
2018-12-16T06:51:48.654Z,-0.20
2018-12-16T06:54:25.034Z,-0.30
2018-12-16T06:56:58.484Z,-0.30
2018-12-16T06:59:31.916Z,-0.30
2018-12-16T07:02:05.459Z,-0.30
2018-12-16T07:04:42.117Z,-0.40
2018-12-16T07:07:15.589Z,-0.40
2018-12-16T07:09:49.078Z,-0.40
2018-12-16T07:12:22.674Z,-0.40
2018-12-16T07:14:57.060Z,-0.40
2018-12-16T07:17:30.519Z,-0.30
2018-12-16T07:20:04.716Z,-0.40
2018-12-16T07:22:39.220Z,-0.40
2018-12-16T07:25:18.752Z,-0.30
2018-12-16T07:27:52.207Z,-0.30
2018-12-16T07:30:25.669Z,-0.30
2018-12-16T07:33:00.021Z,-0.30
2018-12-16T07:35:33.483Z,-0.30
2018-12-16T07:38:06.977Z,-0.30
2018-12-16T07:40:40.433Z,-0.30
2018-12-16T07:43:14.149Z,-0.30
2018-12-16T07:48:53.406Z,-0.30
2018-12-16T07:51:26.880Z,-0.30
2018-12-16T07:54:00.591Z,-0.30
2018-12-16T07:56:34.539Z,-0.30
2018-12-16T07:59:08.572Z,-0.30
2018-12-16T08:01:42.316Z,-0.20
2018-12-16T08:04:16.056Z,-0.30
2018-12-16T08:06:49.739Z,-0.20
2018-12-16T08:09:23.191Z,-0.30
2018-12-16T08:11:56.879Z,-0.30
2018-12-16T08:14:42.872Z,-0.20
2018-12-16T08:20:13.894Z,-0.20
2018-12-16T08:22:47.604Z,-0.30
2018-12-16T08:25:21.188Z,-0.30
2018-12-16T08:27:55.228Z,-0.30
2018-12-16T08:30:28.691Z,-0.30
2018-12-16T08:36:07.865Z,-0.30
2018-12-16T08:38:41.294Z,-0.30
2018-12-16T08:41:14.749Z,-0.30
2018-12-16T08:43:48.174Z,-0.30
2018-12-16T08:46:21.640Z,-0.30
2018-12-16T08:48:55.122Z,-0.30
2018-12-16T08:51:28.591Z,-0.30
2018-12-16T08:54:02.033Z,-0.30
2018-12-16T08:56:35.494Z,-0.30
2018-12-16T08:59:08.931Z,-0.30
2018-12-16T09:01:42.395Z,-0.30
2018-12-16T09:04:16.276Z,-0.30
2018-12-16T09:06:49.727Z,-0.30
2018-12-16T09:09:23.468Z,-0.30
2018-12-16T09:11:58.516Z,-0.30
2018-12-16T09:14:31.953Z,-0.10
2018-12-16T09:17:05.422Z,-0.30
2018-12-16T09:19:38.854Z,-0.30
2018-12-16T09:22:12.391Z,-0.30
2018-12-16T09:24:45.820Z,-0.20
2018-12-16T09:27:20.348Z,-0.20
2018-12-16T09:29:53.793Z,-0.20
2018-12-16T09:32:27.571Z,-0.20
2018-12-16T09:35:01.005Z,-0.20
2018-12-16T09:37:34.458Z,-0.20
2018-12-16T09:40:07.972Z,-0.20
2018-12-16T09:42:41.436Z,-0.20
2018-12-16T09:45:20.928Z,-0.20
2018-12-16T09:47:54.584Z,-0.20
2018-12-16T09:50:28.024Z,-0.20
2018-12-16T09:53:01.568Z,-0.20
2018-12-16T09:55:35.004Z,-0.10
2018-12-16T09:58:08.467Z,-0.10
2018-12-16T10:00:41.912Z,-0.10
2018-12-16T10:03:15.768Z,-0.10
2018-12-16T10:06:01.343Z,-0.10
2018-12-16T10:08:40.346Z,0.00
2018-12-16T10:13:44.680Z,0.00
2018-12-16T10:19:20.277Z,-0.10
2018-12-16T10:21:53.720Z,0.00
2018-12-16T10:24:27.256Z,-0.10
2018-12-16T10:27:01.930Z,-0.10
2018-12-16T10:29:35.380Z,-0.10
2018-12-16T10:32:08.815Z,-0.10
2018-12-16T10:34:42.272Z,-0.10
2018-12-16T10:37:16.519Z,0.00
2018-12-16T10:39:49.980Z,-0.10
2018-12-16T10:42:24.212Z,0.00
2018-12-16T10:44:57.921Z,0.00
2018-12-16T10:47:31.378Z,-0.10
2018-12-16T10:50:06.495Z,0.00
2018-12-16T10:52:39.935Z,-0.10
2018-12-16T10:55:13.423Z,-0.10
2018-12-16T10:57:46.859Z,-0.10
2018-12-16T11:00:25.658Z,0.00
2018-12-16T11:03:00.210Z,0.00
2018-12-16T11:05:33.860Z,0.00
2018-12-16T11:08:07.300Z,0.00
2018-12-16T11:10:40.773Z,0.00
2018-12-16T11:13:14.235Z,0.00
2018-12-16T11:15:47.760Z,0.00
2018-12-16T11:18:21.247Z,0.00
2018-12-16T11:20:54.671Z,0.00
2018-12-16T11:23:28.139Z,0.00
2018-12-16T11:29:32.119Z,0.00
2018-12-16T11:32:07.336Z,0.00
2018-12-16T11:34:40.843Z,0.00
2018-12-16T11:37:14.671Z,0.00
2018-12-16T11:39:58.195Z,0.00
2018-12-16T11:42:31.695Z,0.00
2018-12-16T11:51:15.227Z,0.00
2018-12-16T11:53:48.674Z,0.00
2018-12-16T12:02:11.930Z,0.00
2018-12-16T12:04:45.439Z,-0.10
2018-12-16T12:07:19.131Z,-0.10
2018-12-16T12:09:52.635Z,-0.10
2018-12-16T12:12:44.995Z,-0.10
2018-12-16T12:15:19.824Z,-0.10
2018-12-16T12:17:53.271Z,-0.10
2018-12-16T12:20:27.839Z,-0.10
2018-12-16T12:23:01.304Z,0.00
2018-12-16T12:25:34.743Z,-0.10
2018-12-16T12:28:08.398Z,-0.10
2018-12-16T12:30:41.852Z,-0.10
2018-12-16T12:33:15.496Z,-0.10
2018-12-16T12:35:48.975Z,-0.10
2018-12-16T12:38:22.407Z,-0.10
2018-12-16T12:40:56.431Z,-0.10
2018-12-16T12:43:29.871Z,-0.10
2018-12-16T12:46:22.135Z,-0.10
2018-12-16T12:49:00.422Z,-0.10
2018-12-16T12:51:33.915Z,-0.10
2018-12-16T12:54:07.411Z,-0.10
2018-12-16T12:56:40.923Z,-0.10
2018-12-16T12:59:14.403Z,-0.10
2018-12-16T13:01:47.917Z,-0.10
2018-12-16T13:04:21.352Z,-0.10
2018-12-16T13:06:54.885Z,-0.10
2018-12-16T13:09:29.610Z,-0.10
2018-12-16T13:12:03.198Z,-0.10
2018-12-16T13:14:36.644Z,-0.10
2018-12-16T13:17:10.107Z,0.00
2018-12-16T13:19:43.534Z,-0.10
2018-12-16T13:22:18.343Z,0.00
2018-12-16T13:25:02.734Z,-0.10
2018-12-16T13:27:36.207Z,-0.10
2018-12-16T13:30:09.711Z,0.00
2018-12-16T13:38:50.582Z,0.00
2018-12-16T13:41:25.300Z,0.00
2018-12-16T13:43:58.769Z,0.00
2018-12-16T13:46:32.851Z,0.00
2018-12-16T13:49:06.318Z,0.00
2018-12-16T13:51:39.754Z,0.00
2018-12-16T13:54:13.212Z,0.00
2018-12-16T13:56:46.674Z,0.00
2018-12-16T13:59:20.137Z,0.00
2018-12-16T14:01:53.569Z,0.00
2018-12-16T14:04:27.035Z,0.10
2018-12-16T14:07:00.464Z,0.10
2018-12-16T14:09:33.922Z,0.10
2018-12-16T14:12:08.182Z,0.00
2018-12-16T14:17:45.787Z,0.10
2018-12-16T14:20:19.433Z,0.10
2018-12-16T14:22:52.887Z,0.10
2018-12-16T14:28:30.091Z,0.00
2018-12-16T14:31:03.534Z,0.00
2018-12-16T14:33:36.986Z,0.00
2018-12-16T14:36:19.961Z,0.00
2018-12-16T14:38:53.414Z,0.00
2018-12-16T14:41:26.841Z,0.00
2018-12-16T14:44:00.293Z,0.00
2018-12-16T14:46:34.379Z,0.00
2018-12-16T14:49:07.822Z,0.00
2018-12-16T14:51:41.257Z,0.00
2018-12-16T14:54:14.711Z,0.00
2018-12-16T14:56:48.136Z,0.00
2018-12-16T14:59:21.605Z,0.00
2018-12-16T15:01:55.589Z,0.00
2018-12-16T15:04:29.039Z,0.00
2018-12-16T15:07:02.484Z,0.00
2018-12-16T15:09:35.946Z,0.00
2018-12-16T15:12:09.381Z,0.00
2018-12-16T15:17:22.560Z,0.00
2018-12-16T15:19:56.036Z,0.00
2018-12-16T15:22:29.471Z,0.00
2018-12-16T15:25:02.944Z,0.00
2018-12-16T15:27:36.409Z,-0.10
2018-12-16T15:30:09.984Z,0.00
2018-12-16T15:32:43.431Z,0.00
2018-12-16T15:35:23.036Z,0.00
2018-12-16T15:37:56.468Z,0.00
2018-12-16T15:40:29.927Z,-0.10
2018-12-16T15:43:03.379Z,-0.10
2018-12-16T15:45:36.859Z,0.00
2018-12-16T15:48:10.337Z,0.00
2018-12-16T15:50:43.787Z,0.00
2018-12-16T15:53:17.228Z,0.00
2018-12-16T16:05:07.237Z,0.00
2018-12-16T16:07:57.705Z,-0.10
2018-12-16T16:10:31.200Z,-0.10
2018-12-16T16:13:04.724Z,-0.10
2018-12-16T16:15:38.215Z,-0.10
2018-12-16T16:18:13.680Z,0.00
2018-12-16T16:20:48.127Z,-0.10
2018-12-16T16:23:21.602Z,-0.10
2018-12-16T16:25:56.034Z,-0.10
2018-12-16T16:28:29.503Z,-0.10
2018-12-16T16:31:03.972Z,0.00
2018-12-16T16:33:37.476Z,-0.10
2018-12-16T16:36:10.986Z,-0.10
2018-12-16T16:38:44.452Z,-0.10
2018-12-16T16:41:21.534Z,-0.10
2018-12-16T16:43:54.996Z,-0.10
2018-12-16T16:46:30.590Z,-0.10
2018-12-16T16:49:04.176Z,-0.10
2018-12-16T16:51:39.659Z,-0.10
2018-12-16T16:54:13.124Z,-0.10
2018-12-16T16:56:47.646Z,-0.10
2018-12-16T16:59:21.116Z,-0.10
2018-12-16T17:02:00.172Z,-0.10
2018-12-16T17:04:33.640Z,-0.10
2018-12-16T17:07:08.095Z,0.00
2018-12-16T17:09:41.570Z,0.00
2018-12-16T17:12:18.047Z,-0.10
2018-12-16T17:33:39.178Z,0.00
2018-12-16T17:36:24.916Z,-0.10
2018-12-16T17:39:01.659Z,-0.10
2018-12-16T17:41:35.146Z,-0.10
2018-12-16T17:47:10.073Z,-0.10
2018-12-16T17:49:43.529Z,-0.10
2018-12-16T17:52:16.990Z,-0.10
2018-12-16T17:57:48.780Z,-0.10
2018-12-16T18:00:22.579Z,-0.10
2018-12-16T18:02:56.040Z,-0.10
2018-12-16T18:11:40.019Z,-0.10
2018-12-16T18:14:13.527Z,-0.10
2018-12-16T18:16:46.987Z,-0.10
2018-12-16T18:19:20.424Z,-0.10
2018-12-16T18:21:53.876Z,-0.10
2018-12-16T18:24:27.325Z,-0.10
2018-12-16T18:27:01.509Z,-0.10
2018-12-16T18:29:34.939Z,-0.10
2018-12-16T18:32:08.474Z,-0.10
2018-12-16T18:34:47.978Z,-0.10
2018-12-16T18:37:21.713Z,-0.10
2018-12-16T18:39:55.189Z,-0.10
2018-12-16T18:42:28.656Z,-0.10
2018-12-16T18:45:02.702Z,-0.10
2018-12-16T18:47:36.175Z,-0.10
2018-12-16T18:50:09.787Z,-0.10
2018-12-16T18:52:43.258Z,-0.10
2018-12-16T18:55:22.770Z,-0.10
2018-12-16T18:57:56.282Z,-0.20
2018-12-16T19:00:29.714Z,-0.10
2018-12-16T19:03:03.193Z,-0.10
2018-12-16T19:08:54.132Z,-0.10
2018-12-16T19:11:27.579Z,-0.10
2018-12-16T19:14:01.053Z,-0.10
2018-12-16T19:16:35.221Z,-0.20
2018-12-16T19:19:08.778Z,-0.10
2018-12-16T19:21:42.261Z,-0.10
2018-12-16T19:24:15.726Z,-0.10
2018-12-16T19:26:49.687Z,-0.10
2018-12-16T19:29:23.162Z,-0.10
2018-12-16T19:31:56.610Z,-0.10
2018-12-16T19:34:30.082Z,-0.20
2018-12-16T19:37:03.587Z,-0.20
2018-12-16T19:39:38.055Z,-0.20
2018-12-16T19:42:11.501Z,-0.20
2018-12-16T19:44:55.032Z,-0.20
2018-12-16T19:47:29.397Z,-0.20
2018-12-16T19:50:02.856Z,-0.20
2018-12-16T19:52:37.339Z,-0.20
2018-12-16T19:55:10.913Z,-0.20
2018-12-16T19:57:44.544Z,-0.20
2018-12-16T20:00:18.024Z,-0.20
2018-12-16T20:02:51.480Z,-0.20
2018-12-16T20:05:24.956Z,-0.20
2018-12-16T20:20:06.625Z,-0.10
2018-12-16T20:34:54.912Z,-0.10
2018-12-16T20:37:28.394Z,-0.10
2018-12-16T20:40:02.859Z,-0.10
2018-12-16T20:42:36.333Z,-0.20
2018-12-16T20:45:15.823Z,-0.20
2018-12-16T20:47:50.041Z,-0.20
2018-12-16T20:50:24.540Z,-0.20
2018-12-16T20:52:58.013Z,-0.20
2018-12-16T20:55:36.459Z,-0.20
2018-12-16T20:58:09.948Z,-0.20
2018-12-16T21:00:50.425Z,-0.20
2018-12-16T21:03:23.910Z,-0.20
2018-12-16T21:05:57.416Z,-0.20
2018-12-16T21:08:30.894Z,-0.20
2018-12-16T21:11:19.984Z,-0.20
2018-12-16T21:13:58.925Z,-0.20
2018-12-16T21:17:08.870Z,-0.20
2018-12-16T21:19:44.715Z,-0.20
2018-12-16T21:22:19.316Z,-0.20
2018-12-16T21:24:52.864Z,-0.20
2018-12-16T21:27:31.811Z,-0.20
2018-12-16T21:30:06.987Z,-0.20
2018-12-16T21:32:41.892Z,-0.20
2018-12-16T21:35:15.375Z,-0.20
2018-12-16T21:37:48.887Z,-0.20
2018-12-16T21:40:22.405Z,-0.20
2018-12-16T21:42:57.398Z,-0.20
2018-12-16T21:45:30.867Z,-0.20
2018-12-16T21:48:04.534Z,-0.20
2018-12-16T21:50:38.035Z,-0.20
2018-12-16T21:53:22.827Z,-0.20
2018-12-16T21:55:56.291Z,-0.20
2018-12-16T21:58:30.217Z,-0.20
2018-12-16T22:01:03.713Z,-0.20
2018-12-16T22:03:43.379Z,-0.20
2018-12-16T22:06:20.311Z,-0.20
2018-12-16T22:15:07.377Z,0.00
2018-12-16T22:17:41.856Z,-0.20
2018-12-16T22:20:15.336Z,-0.20
2018-12-16T22:22:48.777Z,-0.20
2018-12-16T22:28:24.242Z,-0.20
2018-12-16T22:30:58.461Z,-0.20
2018-12-16T22:33:31.935Z,-0.20
2018-12-16T22:36:27.337Z,-0.20
2018-12-16T22:39:00.802Z,-0.20
2018-12-16T22:41:34.245Z,-0.20
2018-12-16T22:44:09.111Z,-0.20
2018-12-16T22:46:42.638Z,-0.30
2018-12-16T22:49:16.105Z,-0.30
2018-12-16T22:51:49.553Z,-0.30
2018-12-16T22:54:23.809Z,-0.30
2018-12-16T22:56:57.250Z,-0.30
2018-12-16T22:59:31.081Z,-0.30
2018-12-16T23:02:04.600Z,-0.40
2018-12-16T23:08:01.872Z,-0.40
2018-12-16T23:10:35.321Z,-0.40
2018-12-16T23:13:08.780Z,-0.40
2018-12-16T23:18:46.245Z,-0.40
2018-12-16T23:21:19.765Z,-0.50
2018-12-16T23:23:54.418Z,-0.50
2018-12-16T23:29:33.344Z,-0.50
2018-12-16T23:32:06.775Z,-0.50
2018-12-16T23:34:45.836Z,-0.50
2018-12-16T23:37:19.495Z,-0.50
2018-12-16T23:39:53.601Z,-0.50
2018-12-16T23:42:27.034Z,-0.50
2018-12-16T23:45:00.507Z,-0.50
2018-12-16T23:47:34.177Z,-0.50
2018-12-16T23:50:07.814Z,-0.50
2018-12-16T23:52:41.251Z,-0.50
2018-12-16T23:55:14.716Z,-0.40
2018-12-16T23:57:48.159Z,-0.40
